Aérodrome :
LOGIN :

S'inscrire | Disclaimer

   EN    FR    IT 

 










Légende :    VFR   VFR Marginal   IFR   IFR Intensif   IFR Très Intensif
Visi : 
Plafond : 
>= 8 km
>= 3000ft
5 à 8 km
1000 à 3000 ft
1500m à 5 km
500 à 1000 ft
800 à 1500m
200 à 500 ft
< 800m
< 200 ft
Symboles :   Orages  Brouillard  Fortes neiges  Fortes précipitations  Vent > 20 kt
SIGMETs :   Divers  Orages  Givrage  Turbulence  Onde Orograph.  Cendres Volcan.







- Altitude de l'aérodrome : 423 ft
- Code IATA : PIS
- Voir les cartes d'approche


LFBI - Poitiers

DERNIER METAR :
  • 192200Z AUTO 02005KT CAVOK 00/M01 Q1004 TEMPO OVC005

METARs EXPIRÉS :
  • 192130Z AUTO 03009KT CAVOK 01/M00 Q1005 TEMPO OVC005
  • 192100Z AUTO 03010KT CAVOK 02/M00 Q1005 BECMG BKN010
  • 192030Z AUTO 02008KT CAVOK 01/M01 Q1005 BECMG BKN010
  • 192000Z AUTO 02007KT 9999 BKN047 01/M02 Q1005 BECMG BKN010
  • 191930Z AUTO 04008KT 9999 BKN044 01/M02 Q1006 BECMG BKN010

TAF TAF LFBI
Valide du 19 à 18h jusqu'au 20 à 18h UTC


191700Z 1918/2018 04010KT 9999 BKN030
BECMG 1921/1923 BKN010
TEMPO 1923/2010 OVC005
PROB30
TEMPO 2001/2009 1500 -SN OVC003
BECMG 2010/2012 BKN020
Pas de NOTAMs connus pour ce terrain.



MET'MAP, la Météo Aéronautique d'un coup d'oeil ! - Copyright ORBIFLY Décembre 2007 - Disclaimer

ORBIFLY MET'MAP TEAM :

Programmation & Développement : Alexandra Zaïnal
Conception & Développement : Baudouin d'Aumeries
Co-Programmation & Développement : Marc-Olivier Méhu
Soutien technique & logistique : Manuel Goepfert

Contact : metmap@orbifly.com




SOURCES & CREDITS :

   NOAA